Time;durP1;ratioP1;P1;durP2;ratioP2;P2;SDS_P1;SDS_P2;PMS_P1;PMS_P2;Temp;Humidity;BMP_temperature;BMP_pressure;BME280_temperature;BME280_humidity;BME280_pressure;Samples;Min_cycle;Max_cycle;Signal;HPM_P1;HPM_P2
2023/03/04 00:01:22;;;;;;;8.75;3.60;;;1.00;95.50;;;;;;5027757;28;20217;-67
2023/03/04 00:03:49;;;;;;;5.32;2.60;;;0.90;95.70;;;;;;5012382;28;20208;-68
2023/03/04 00:06:16;;;;;;;4.53;2.70;;;1.30;99.90;;;;;;5011379;28;20228;-68
2023/03/04 00:08:42;;;;;;;5.90;2.95;;;0.90;96.30;;;;;;5018933;28;20197;-67
2023/03/04 00:11:09;;;;;;;2.35;2.15;;;0.90;96.30;;;;;;5031493;28;20726;-67
2023/03/04 00:13:36;;;;;;;2.78;2.58;;;0.90;96.40;;;;;;5011932;28;20189;-67
2023/03/04 00:16:03;;;;;;;4.78;3.25;;;0.90;96.60;;;;;;5013188;28;20217;-66
2023/03/04 00:18:31;;;;;;;16.23;4.82;;;0.90;96.70;;;;;;5011017;28;20217;-66
2023/03/04 00:20:57;;;;;;;3.67;2.00;;;0.80;96.90;;;;;;5014917;28;20214;-68
2023/03/04 00:23:24;;;;;;;4.03;2.55;;;0.80;97.20;;;;;;5020504;28;20203;-67
2023/03/04 00:25:51;;;;;;;3.00;2.55;;;0.80;97.30;;;;;;5011507;28;20221;-67
2023/03/04 00:28:18;;;;;;;3.67;3.40;;;0.80;96.70;;;;;;5016229;28;20205;-67
2023/03/04 00:30:45;;;;;;;3.03;2.67;;;0.90;96.80;;;;;;5022642;28;20217;-67
2023/03/04 00:33:11;;;;;;;7.82;3.53;;;0.90;96.50;;;;;;5019409;28;20204;-66
2023/03/04 00:35:40;;;;;;;1.70;1.60;;;0.80;96.30;;;;;;5019721;28;20300;-67
2023/03/04 00:38:07;;;;;;;2.55;2.40;;;0.80;96.30;;;;;;5016997;28;20201;-68
2023/03/04 00:40:34;;;;;;;1.38;1.27;;;0.70;96.30;;;;;;5031135;28;20218;-67
2023/03/04 00:43:02;;;;;;;2.42;2.28;;;0.70;96.10;;;;;;5022409;28;20296;-67
2023/03/04 00:45:29;;;;;;;3.25;1.88;;;0.70;96.00;;;;;;5022863;28;20213;-67
2023/03/04 00:47:56;;;;;;;4.15;3.22;;;0.70;96.30;;;;;;5030735;28;20204;-67
2023/03/04 00:50:23;;;;;;;2.55;2.30;;;0.10;98.80;;;;;;5030185;28;20435;-67
2023/03/04 00:52:51;;;;;;;3.88;3.58;;;0.60;96.60;;;;;;5023462;28;20201;-67
2023/03/04 00:55:17;;;;;;;1.70;1.60;;;0.60;96.90;;;;;;5020356;28;20203;-67
2023/03/04 00:57:44;;;;;;;1.33;1.33;;;0.60;97.10;;;;;;5011570;28;20564;-68
2023/03/04 01:00:12;;;;;;;4.28;2.20;;;0.50;97.10;;;;;;5046448;28;20221;-67
2023/03/04 01:02:39;;;;;;;13.30;3.45;;;0.50;97.00;;;;;;5025783;28;20204;-67
2023/03/04 01:05:09;;;;;;;3.17;2.80;;;0.60;96.60;;;;;;5012587;28;20283;-66
2023/03/04 01:07:37;;;;;;;5.07;1.67;;;0.50;96.40;;;;;;5029313;28;20193;-67
2023/03/04 01:10:10;;;;;;;4.20;2.90;;;0.50;96.40;;;;;;5013589;28;20558;-67
2023/03/04 01:12:36;;;;;;;3.80;2.53;;;0.50;96.30;;;;;;5010949;28;20189;-67
2023/03/04 01:15:04;;;;;;;6.32;2.45;;;0.40;96.40;;;;;;5015366;28;20208;-67
2023/03/04 01:17:31;;;;;;;2.03;1.52;;;0.50;96.10;;;;;;5014489;28;20212;-66
2023/03/04 01:19:57;;;;;;;3.55;2.10;;;0.40;95.90;;;;;;5029559;28;20228;-67
2023/03/04 01:22:24;;;;;;;3.08;2.88;;;0.40;96.50;;;;;;5023920;28;20217;-67
2023/03/04 01:24:51;;;;;;;3.53;3.22;;;0.40;96.90;;;;;;5010782;28;20212;-68
2023/03/04 01:27:19;;;;;;;4.47;3.80;;;0.30;97.30;;;;;;5022741;28;20271;-66
2023/03/04 01:29:46;;;;;;;5.22;3.42;;;0.40;97.70;;;;;;5012887;28;20200;-67
2023/03/04 01:32:13;;;;;;;14.05;2.75;;;0.30;97.90;;;;;;5022766;28;20217;-66
2023/03/04 01:34:39;;;;;;;3.30;2.40;;;0.30;98.20;;;;;;5023794;28;20569;-67
2023/03/04 01:37:06;;;;;;;2.35;1.58;;;0.30;98.20;;;;;;5029441;28;20228;-66
2023/03/04 01:39:33;;;;;;;2.65;2.05;;;0.40;98.40;;;;;;5028791;28;20220;-66
2023/03/04 01:42:00;;;;;;;3.35;1.80;;;0.30;98.60;;;;;;5015141;28;20222;-66
2023/03/04 01:44:28;;;;;;;8.93;3.50;;;0.20;98.60;;;;;;5029151;28;20196;-66
2023/03/04 01:46:56;;;;;;;5.18;2.00;;;0.10;98.80;;;;;;5028832;28;20220;-67
2023/03/04 01:49:23;;;;;;;2.97;1.92;;;0.20;98.40;;;;;;5028952;28;20192;-67
2023/03/04 01:51:52;;;;;;;8.43;2.47;;;0.10;97.80;;;;;;5027560;28;20224;-69
2023/03/04 01:54:20;;;;;;;2.97;2.40;;;0.20;97.70;;;;;;5020327;28;20188;-66
2023/03/04 01:56:48;;;;;;;1.92;1.83;;;0.20;97.30;;;;;;5018349;28;20214;-68
2023/03/04 01:59:18;;;;;;;7.15;3.15;;;0.10;97.00;;;;;;5035231;28;20277;-68
2023/03/04 02:01:49;;;;;;;4.35;3.95;;;0.10;97.10;;;;;;5015361;28;20221;-67
2023/03/04 02:04:16;;;;;;;5.43;3.15;;;0.10;97.00;;;;;;5030009;28;20211;-67
2023/03/04 02:06:44;;;;;;;1.77;1.67;;;0.10;97.20;;;;;;5029956;28;20711;-66
2023/03/04 02:09:11;;;;;;;7.78;2.38;;;0.00;97.50;;;;;;5016878;28;20199;-67
2023/03/04 02:11:38;;;;;;;1.85;1.70;;;0.10;99.90;;;;;;5013370;28;20545;-66
2023/03/04 02:14:06;;;;;;;7.32;3.33;;;0.00;97.80;;;;;;5033483;28;20227;-67
2023/03/04 02:16:33;;;;;;;3.88;2.53;;;0.00;98.00;;;;;;5033656;28;20853;-66
2023/03/04 02:19:07;;;;;;;3.90;3.53;;;0.00;98.20;;;;;;5020026;28;20284;-67
2023/03/04 02:21:34;;;;;;;8.13;3.65;;;0.00;98.40;;;;;;5014281;28;20214;-66
2023/03/04 02:24:08;;;;;;;4.28;1.73;;;-0.10;98.40;;;;;;5013936;28;20201;-66
2023/03/04 02:26:40;;;;;;;7.50;2.60;;;-0.10;98.30;;;;;;5013904;28;20221;-67
2023/03/04 02:29:07;;;;;;;3.25;3.05;;;-0.10;98.60;;;;;;5012899;28;20702;-66
2023/03/04 02:31:36;;;;;;;1.20;1.15;;;-0.10;98.60;;;;;;5030622;28;20216;-67
2023/03/04 02:34:05;;;;;;;2.25;1.90;;;-0.10;98.70;;;;;;5031625;28;20189;-66
2023/03/04 02:36:35;;;;;;;12.90;3.50;;;-0.10;98.00;;;;;;5032827;28;20574;-67
2023/03/04 02:39:07;;;;;;;4.63;4.25;;;0.00;98.10;;;;;;5020641;28;20223;-66
2023/03/04 02:41:35;;;;;;;2.53;2.33;;;-0.10;98.30;;;;;;5015655;28;20215;-67
2023/03/04 02:44:15;;;;;;;5.65;2.95;;;-0.10;98.30;;;;;;5013825;28;20605;-67
2023/03/04 02:46:43;;;;;;;2.13;1.92;;;-0.10;98.50;;;;;;5014113;28;20235;-66
2023/03/04 02:49:10;;;;;;;2.35;1.83;;;-0.10;98.50;;;;;;5029198;28;20201;-67
2023/03/04 02:51:38;;;;;;;0.95;0.90;;;-0.10;98.50;;;;;;5032952;28;20303;-67
2023/03/04 02:54:14;;;;;;;2.20;2.05;;;-0.10;98.80;;;;;;5015602;28;20196;-67
2023/03/04 02:56:46;;;;;;;2.42;2.28;;;-0.20;98.80;;;;;;5015823;28;20221;-66
2023/03/04 02:59:16;;;;;;;3.30;2.20;;;-0.20;98.90;;;;;;5037559;28;20259;-67
2023/03/04 03:01:43;;;;;;;2.08;1.90;;;-0.20;98.70;;;;;;5032879;28;20308;-66
2023/03/04 03:04:10;;;;;;;2.25;1.73;;;-0.10;99.90;;;;;;5032783;28;20196;-66
2023/03/04 03:06:37;;;;;;;2.28;2.17;;;-0.20;98.20;;;;;;5032961;28;20271;-66
2023/03/04 03:09:05;;;;;;;3.00;2.22;;;-0.20;97.40;;;;;;5021669;28;20602;-66
2023/03/04 03:11:32;;;;;;;1.40;1.40;;;;;;;;;;5016134;28;20262;-67
2023/03/04 03:13:59;;;;;;;2.85;2.55;;;-0.30;97.20;;;;;;5025475;28;20198;-67
2023/03/04 03:16:28;;;;;;;4.75;3.00;;;-0.40;97.80;;;;;;5013693;28;20228;-67
2023/03/04 03:18:55;;;;;;;8.27;2.83;;;-0.40;98.10;;;;;;5012002;28;20203;-66
2023/03/04 03:21:23;;;;;;;4.28;2.10;;;-0.40;98.40;;;;;;5013934;28;20304;-67
2023/03/04 03:23:50;;;;;;;2.33;2.08;;;-0.40;98.40;;;;;;5031087;28;20255;-68
2023/03/04 03:26:19;;;;;;;1.50;1.17;;;;;;;;;;5031726;28;20248;-68
2023/03/04 03:28:47;;;;;;;3.15;1.80;;;-0.50;98.60;;;;;;5017411;28;20201;-67
2023/03/04 03:31:15;;;;;;;2.13;1.92;;;-0.60;99.90;;;;;;5016475;28;20228;-67
2023/03/04 03:33:43;;;;;;;1.35;1.33;;;-0.50;99.20;;;;;;5021066;28;20216;-67
2023/03/04 03:36:10;;;;;;;1.60;1.50;;;-0.50;99.40;;;;;;5032530;28;20231;-67
2023/03/04 03:38:38;;;;;;;3.10;1.63;;;-0.40;99.50;;;;;;5031139;28;20192;-67
2023/03/04 03:41:06;;;;;;;3.72;2.15;;;;;;;;;;5029152;28;20652;-67
2023/03/04 03:43:33;;;;;;;1.63;1.52;;;-0.50;99.10;;;;;;5017843;28;20200;-66
2023/03/04 03:46:02;;;;;;;1.35;1.25;;;-0.50;99.20;;;;;;5025140;28;20227;-66
2023/03/04 03:48:29;;;;;;;2.40;2.15;;;-0.60;99.30;;;;;;5031413;28;20193;-66
2023/03/04 03:50:59;;;;;;;0.70;0.70;;;-0.50;99.50;;;;;;5032315;28;20318;-67
2023/03/04 03:53:26;;;;;;;2.20;2.00;;;-0.60;99.50;;;;;;5021269;28;20193;-67
2023/03/04 03:55:54;;;;;;;1.50;1.25;;;-0.50;99.60;;;;;;5024402;28;20217;-68
2023/03/04 03:58:22;;;;;;;0.77;0.77;;;-0.50;99.50;;;;;;5023756;28;20207;-67
2023/03/04 04:00:50;;;;;;;1.77;1.30;;;-0.50;99.40;;;;;;5042771;28;20232;-68
2023/03/04 04:03:17;;;;;;;2.25;1.02;;;-0.60;99.30;;;;;;5027774;28;20223;-66
2023/03/04 04:05:45;;;;;;;4.25;2.92;;;-0.60;99.40;;;;;;5031771;28;20231;-66
2023/03/04 04:08:14;;;;;;;2.25;2.15;;;-0.60;99.40;;;;;;5026575;28;20193;-66
2023/03/04 04:10:41;;;;;;;0.63;0.63;;;-0.60;99.60;;;;;;5012986;28;20308;-67
2023/03/04 04:13:08;;;;;;;0.88;0.88;;;-0.50;99.70;;;;;;5030417;28;20721;-66
2023/03/04 04:15:35;;;;;;;2.35;1.88;;;-0.50;99.80;;;;;;5025528;28;20217;-66
2023/03/04 04:18:02;;;;;;;2.17;1.98;;;-0.60;99.60;;;;;;5016159;28;20375;-66
2023/03/04 04:20:29;;;;;;;4.35;2.95;;;-0.70;99.80;;;;;;5031115;28;20246;-66
2023/03/04 04:22:56;;;;;;;1.48;1.38;;;-0.80;99.90;;;;;;5018636;28;20209;-68
2023/03/04 04:25:24;;;;;;;11.30;4.03;;;-0.80;99.90;;;;;;5011942;28;20664;-66
2023/03/04 04:27:51;;;;;;;2.28;2.17;;;-0.80;99.90;;;;;;5011898;28;20208;-67
2023/03/04 04:30:18;;;;;;;2.70;2.50;;;-0.80;99.90;;;;;;5018659;28;20196;-67
2023/03/04 04:32:45;;;;;;;1.30;1.20;;;-0.70;99.90;;;;;;5018236;28;20682;-66
2023/03/04 04:35:12;;;;;;;1.67;1.08;;;;;;;;;;5010832;28;20224;-67
2023/03/04 04:37:39;;;;;;;3.90;1.83;;;-0.80;99.90;;;;;;5024719;28;20209;-66
2023/03/04 04:40:06;;;;;;;1.73;1.52;;;-0.90;99.90;;;;;;5031666;28;20729;-66
2023/03/04 04:42:35;;;;;;;1.40;1.30;;;-0.80;99.90;;;;;;5015649;28;20197;-67
2023/03/04 04:45:01;;;;;;;1.40;1.30;;;-0.90;99.90;;;;;;5011667;28;20197;-66
2023/03/04 04:47:28;;;;;;;2.85;2.63;;;-0.80;99.90;;;;;;5026778;28;20236;-66
2023/03/04 04:49:56;;;;;;;1.13;1.08;;;-0.90;99.90;;;;;;5010413;28;20322;-67
2023/03/04 04:52:22;;;;;;;20.80;2.20;;;-0.80;99.90;;;;;;5013861;28;20259;-67
2023/03/04 04:54:49;;;;;;;1.00;0.98;;;-0.80;99.90;;;;;;5031393;28;20203;-67
2023/03/04 04:57:16;;;;;;;1.40;1.30;;;-0.80;99.90;;;;;;5025424;28;20232;-66
2023/03/04 04:59:44;;;;;;;2.15;2.05;;;-1.20;99.90;;;;;;5040711;28;20316;-66
2023/03/04 05:02:11;;;;;;;2.58;1.67;;;-0.80;99.90;;;;;;5022395;28;20312;-66
2023/03/04 05:04:37;;;;;;;4.05;1.67;;;-1.60;99.90;;;;;;5011591;28;20212;-67
2023/03/04 05:07:04;;;;;;;2.17;1.90;;;-0.90;99.90;;;;;;5010975;28;20225;-67
2023/03/04 05:09:31;;;;;;;1.33;1.25;;;-0.80;99.90;;;;;;5026010;28;20209;-65
2023/03/04 05:11:58;;;;;;;1.13;1.02;;;-0.80;99.90;;;;;;5029764;28;20224;-67
2023/03/04 05:14:24;;;;;;;2.55;2.45;;;-0.80;99.90;;;;;;5029700;28;20205;-67
2023/03/04 05:16:53;;;;;;;5.38;2.35;;;-0.90;99.90;;;;;;5024908;28;20224;-66
2023/03/04 05:19:20;;;;;;;1.25;1.25;;;-0.90;99.90;;;;;;5025745;28;20207;-67
2023/03/04 05:21:46;;;;;;;2.92;1.98;;;-0.90;99.90;;;;;;5030419;28;20224;-66
2023/03/04 05:24:13;;;;;;;1.33;1.25;;;-1.00;99.90;;;;;;5030698;28;20219;-66
2023/03/04 05:26:40;;;;;;;2.10;1.55;;;-1.00;99.90;;;;;;5030468;28;20240;-66
2023/03/04 05:29:07;;;;;;;9.88;4.03;;;-1.00;99.90;;;;;;5012488;28;20205;-67
2023/03/04 05:31:34;;;;;;;4.10;3.78;;;-1.10;99.90;;;;;;5023368;28;20229;-66
2023/03/04 05:34:02;;;;;;;2.38;2.28;;;-1.20;99.90;;;;;;5010559;28;20679;-66
2023/03/04 05:36:28;;;;;;;1.23;1.05;;;-1.10;99.90;;;;;;5010530;28;20232;-66
2023/03/04 05:38:55;;;;;;;3.25;2.28;;;-1.10;99.80;;;;;;5010859;28;20229;-66
2023/03/04 05:41:22;;;;;;;1.10;1.10;;;-1.10;99.70;;;;;;5027129;28;20236;-66
2023/03/04 05:43:49;;;;;;;4.32;3.40;;;-1.10;99.50;;;;;;5010438;28;20214;-66
2023/03/04 05:46:22;;;;;;;2.15;1.65;;;-1.10;99.50;;;;;;5027919;28;20220;-66
2023/03/04 05:48:49;;;;;;;4.57;3.13;;;-1.10;99.70;;;;;;5022623;28;20200;-66
2023/03/04 05:51:18;;;;;;;3.45;2.38;;;-1.20;99.90;;;;;;5010213;28;20222;-66
2023/03/04 05:53:45;;;;;;;1.15;1.15;;;-1.20;99.90;;;;;;5025252;28;20201;-66
2023/03/04 05:56:13;;;;;;;2.13;1.77;;;-1.20;99.90;;;;;;5023684;28;20573;-67
2023/03/04 05:58:40;;;;;;;4.85;3.40;;;-1.30;99.90;;;;;;5023875;28;20199;-66
2023/03/04 06:01:08;;;;;;;8.35;2.70;;;-1.20;99.40;;;;;;5034038;28;20225;-66
2023/03/04 06:03:35;;;;;;;3.20;2.80;;;-1.20;99.20;;;;;;5023586;28;20201;-66
2023/03/04 06:06:01;;;;;;;1.45;1.17;;;-1.20;99.50;;;;;;5010407;28;20853;-66
2023/03/04 06:08:30;;;;;;;2.83;1.50;;;-1.10;99.40;;;;;;5009268;28;20252;-66
2023/03/04 06:10:57;;;;;;;3.13;3.03;;;-1.10;99.50;;;;;;5009770;28;20214;-67
2023/03/04 06:13:25;;;;;;;2.35;1.73;;;-1.10;99.40;;;;;;5021401;28;20224;-66
2023/03/04 06:15:54;;;;;;;2.97;2.58;;;-1.10;99.80;;;;;;5025505;28;20235;-67
2023/03/04 06:18:22;;;;;;;1.20;1.10;;;-1.10;99.90;;;;;;5025335;28;20241;-66
2023/03/04 06:20:48;;;;;;;1.48;1.42;;;-1.20;99.90;;;;;;5035993;28;20689;-66
2023/03/04 06:23:15;;;;;;;1.00;1.00;;;-1.10;99.90;;;;;;5037893;28;20294;-66
2023/03/04 06:25:43;;;;;;;2.90;2.70;;;-1.30;99.90;;;;;;5039727;28;20242;-66
2023/03/04 06:28:10;;;;;;;1.50;1.40;;;-1.30;99.90;;;;;;5033915;28;20200;-67
2023/03/04 06:30:37;;;;;;;4.32;1.67;;;-1.30;99.90;;;;;;5046712;28;20306;-66
2023/03/04 06:33:04;;;;;;;1.02;0.95;;;-1.30;99.90;;;;;;5017204;28;20212;-66
2023/03/04 06:35:30;;;;;;;1.80;1.70;;;-1.40;99.90;;;;;;5028297;28;20221;-67
2023/03/04 06:37:57;;;;;;;1.38;1.27;;;-1.30;99.90;;;;;;5028023;28;20212;-66
2023/03/04 06:40:24;;;;;;;1.73;1.63;;;-1.40;99.90;;;;;;5031133;28;20243;-66
2023/03/04 06:42:52;;;;;;;0.70;0.70;;;-1.30;99.90;;;;;;5010115;28;20201;-67
2023/03/04 06:45:19;;;;;;;2.55;2.45;;;-1.30;99.90;;;;;;5026124;28;20268;-66
2023/03/04 06:47:46;;;;;;;3.67;2.22;;;-1.20;99.90;;;;;;5023084;28;20212;-66
2023/03/04 06:50:13;;;;;;;1.80;1.20;;;-1.10;99.90;;;;;;5018033;28;20200;-66
2023/03/04 06:52:40;;;;;;;2.92;1.73;;;-1.00;99.90;;;;;;5022961;28;20287;-68
2023/03/04 06:55:08;;;;;;;0.65;0.65;;;-1.00;99.90;;;;;;5017957;28;20207;-67
2023/03/04 06:57:35;;;;;;;1.33;0.98;;;-1.00;99.90;;;;;;5012270;28;20224;-67
2023/03/04 07:00:05;;;;;;;3.00;2.20;;;-1.00;99.90;;;;;;5046941;28;20207;-66
2023/03/04 07:02:32;;;;;;;3.20;3.05;;;-0.90;99.90;;;;;;5028606;28;20295;-68
2023/03/04 07:04:58;;;;;;;2.85;2.58;;;-0.70;99.90;;;;;;5037887;28;20199;-68
2023/03/04 07:07:26;;;;;;;0.77;0.77;;;-0.80;99.90;;;;;;5038463;28;20916;-69
2023/03/04 07:09:56;;;;;;;2.03;1.92;;;-0.70;99.90;;;;;;5041250;28;20201;-69
2023/03/04 07:12:23;;;;;;;12.13;5.75;;;-0.50;99.90;;;;;;5035808;28;20750;-69
2023/03/04 07:14:50;;;;;;;4.72;2.08;;;-0.50;99.90;;;;;;5041168;28;20197;-69
2023/03/04 07:17:19;;;;;;;3.90;2.55;;;-0.40;99.90;;;;;;5039496;28;20217;-70
2023/03/04 07:19:46;;;;;;;4.22;1.38;;;-0.40;99.90;;;;;;5038993;28;20609;-69
2023/03/04 07:22:13;;;;;;;2.15;0.90;;;-0.30;99.90;;;;;;5035248;28;20706;-68
2023/03/04 07:24:39;;;;;;;1.38;1.15;;;-0.30;99.90;;;;;;5035678;28;20824;-69
2023/03/04 07:27:06;;;;;;;2.00;1.90;;;-0.20;99.90;;;;;;5035245;28;20221;-68
2023/03/04 07:29:33;;;;;;;0.73;0.73;;;-0.30;99.90;;;;;;5040261;28;20284;-68
2023/03/04 07:32:00;;;;;;;3.30;3.10;;;-0.30;99.90;;;;;;5024535;28;20208;-69
2023/03/04 07:34:28;;;;;;;1.13;0.68;;;-0.20;99.90;;;;;;5028099;28;20220;-68
2023/03/04 07:36:54;;;;;;;1.90;1.05;;;-0.30;99.90;;;;;;5032513;28;20227;-68
2023/03/04 07:39:21;;;;;;;1.35;1.25;;;-0.30;99.90;;;;;;5026450;28;20197;-67
2023/03/04 07:41:48;;;;;;;1.85;0.93;;;-0.20;99.90;;;;;;5028822;28;20228;-66
2023/03/04 07:44:15;;;;;;;1.58;1.10;;;-0.20;99.90;;;;;;5031567;28;20196;-68
2023/03/04 07:46:42;;;;;;;5.07;2.85;;;-0.20;99.90;;;;;;5028385;28;20221;-66
2023/03/04 07:49:11;;;;;;;1.67;1.58;;;0.00;99.90;;;;;;5024723;28;20201;-66
2023/03/04 07:51:39;;;;;;;3.75;2.30;;;-0.10;99.90;;;;;;5028991;28;20303;-67
2023/03/04 07:54:06;;;;;;;2.47;1.23;;;-0.10;99.90;;;;;;5029232;28;20203;-66
2023/03/04 07:56:34;;;;;;;2.90;1.45;;;0.10;99.90;;;;;;5023417;28;20221;-66
2023/03/04 07:59:01;;;;;;;0.73;0.73;;;0.00;99.90;;;;;;5028078;28;20666;-67
2023/03/04 08:01:30;;;;;;;9.10;4.13;;;0.00;99.90;;;;;;5025572;28;20225;-66
2023/03/04 08:03:57;;;;;;;1.98;1.48;;;-0.10;99.90;;;;;;5027131;28;20572;-66
2023/03/04 08:06:25;;;;;;;0.60;0.60;;;0.00;99.90;;;;;;5031372;28;20236;-66
2023/03/04 08:08:57;;;;;;;3.00;2.78;;;0.10;99.90;;;;;;5018564;28;20260;-67
2023/03/04 08:11:24;;;;;;;2.50;1.42;;;0.20;99.90;;;;;;5020389;28;20225;-66
2023/03/04 08:13:52;;;;;;;2.53;1.88;;;0.20;99.90;;;;;;5011382;28;20573;-66
2023/03/04 08:16:21;;;;;;;1.08;1.08;;;0.20;99.90;;;;;;5012323;28;20227;-66
2023/03/04 08:18:50;;;;;;;6.63;3.22;;;0.20;99.90;;;;;;5023705;28;20200;-67
2023/03/04 08:21:19;;;;;;;3.38;3.08;;;0.30;99.90;;;;;;5029937;28;20232;-66
2023/03/04 08:23:46;;;;;;;0.80;0.80;;;0.30;99.90;;;;;;5027237;28;20197;-66
2023/03/04 08:26:17;;;;;;;0.70;0.70;;;0.50;99.90;;;;;;5031841;28;20221;-66
2023/03/04 08:28:44;;;;;;;2.38;1.48;;;0.40;99.90;;;;;;5018106;28;20208;-67
2023/03/04 08:31:12;;;;;;;5.20;3.15;;;0.50;99.90;;;;;;5030881;28;20304;-68
2023/03/04 08:33:39;;;;;;;1.23;1.23;;;0.50;99.90;;;;;;5009959;28;20202;-68
2023/03/04 08:36:06;;;;;;;3.33;3.10;;;0.40;99.90;;;;;;5019961;28;20593;-67
2023/03/04 08:38:33;;;;;;;2.97;1.50;;;0.50;99.90;;;;;;5022789;28;20805;-66
2023/03/04 08:41:01;;;;;;;4.32;2.97;;;0.40;99.90;;;;;;5013933;28;20221;-66
2023/03/04 08:43:30;;;;;;;0.90;0.90;;;0.30;99.90;;;;;;5011452;28;20205;-67
2023/03/04 08:45:57;;;;;;;0.98;0.95;;;0.30;99.90;;;;;;5029851;28;20222;-69
2023/03/04 08:48:24;;;;;;;5.72;2.47;;;0.10;99.90;;;;;;5015623;28;21110;-66
2023/03/04 08:50:51;;;;;;;2.25;2.15;;;0.10;99.90;;;;;;5022096;28;20299;-66
2023/03/04 08:53:19;;;;;;;1.42;1.33;;;0.20;99.90;;;;;;5027278;28;20196;-67
2023/03/04 08:55:46;;;;;;;4.25;3.70;;;0.30;99.90;;;;;;5035057;28;20751;-67
2023/03/04 08:58:13;;;;;;;0.63;0.63;;;0.40;99.90;;;;;;5039492;28;20206;-67
2023/03/04 09:00:47;;;;;;;3.22;1.20;;;0.40;99.90;;;;;;5037849;28;20589;-66
2023/03/04 09:03:14;;;;;;;2.92;1.25;;;0.40;99.90;;;;;;5038179;28;20740;-67
2023/03/04 09:05:41;;;;;;;3.45;3.30;;;0.50;99.90;;;;;;5040096;28;20304;-67
2023/03/04 09:08:08;;;;;;;1.60;1.20;;;0.60;99.90;;;;;;5037759;28;20555;-67
2023/03/04 09:10:35;;;;;;;0.90;0.90;;;1.10;99.90;;;;;;5039517;28;20595;-67
2023/03/04 09:13:02;;;;;;;1.20;1.13;;;0.60;99.90;;;;;;5035499;28;20561;-67
2023/03/04 09:15:28;;;;;;;1.45;1.35;;;0.70;99.90;;;;;;5024727;28;20224;-67
2023/03/04 09:17:56;;;;;;;1.13;0.85;;;0.50;99.90;;;;;;5022865;28;20574;-67
2023/03/04 09:20:23;;;;;;;1.60;1.50;;;0.50;99.90;;;;;;5025482;28;20220;-67
2023/03/04 09:22:50;;;;;;;1.75;0.95;;;0.60;99.90;;;;;;5010850;28;20221;-68
2023/03/04 09:25:17;;;;;;;2.25;1.25;;;0.60;99.90;;;;;;5026699;28;20208;-67
2023/03/04 09:27:44;;;;;;;1.60;1.38;;;0.60;99.90;;;;;;5020920;28;20205;-67
2023/03/04 09:30:12;;;;;;;2.67;1.55;;;0.60;99.90;;;;;;5019848;28;20200;-67
2023/03/04 09:32:40;;;;;;;2.38;1.70;;;0.50;99.90;;;;;;5022021;28;20190;-69
2023/03/04 09:35:09;;;;;;;2.05;1.63;;;0.50;99.90;;;;;;5010474;28;20208;-68
2023/03/04 09:37:37;;;;;;;2.33;1.48;;;0.60;99.90;;;;;;5010723;28;20200;-67
2023/03/04 09:40:05;;;;;;;2.35;2.15;;;0.70;99.90;;;;;;5021654;28;20378;-68
2023/03/04 09:42:38;;;;;;;1.48;0.70;;;0.70;99.90;;;;;;5020685;28;20584;-68
2023/03/04 09:45:07;;;;;;;0.45;0.45;;;0.80;99.90;;;;;;5015587;28;20285;-67
2023/03/04 09:47:36;;;;;;;1.60;1.55;;;0.80;99.90;;;;;;5023389;28;20193;-68
2023/03/04 09:50:06;;;;;;;1.98;1.77;;;0.90;99.90;;;;;;5025681;28;20204;-67
2023/03/04 09:52:50;;;;;;;0.98;0.85;;;1.00;99.80;;;;;;5013628;28;20678;-67
2023/03/04 09:55:21;;;;;;;1.25;1.15;;;0.90;99.70;;;;;;5015288;28;20195;-68
2023/03/04 09:57:52;;;;;;;1.65;1.13;;;0.80;99.70;;;;;;5019029;28;20201;-67
2023/03/04 10:00:22;;;;;;;3.25;1.80;;;0.80;99.90;;;;;;5025469;28;20283;-68
2023/03/04 10:03:12;;;;;;;3.88;2.55;;;1.10;99.90;;;;;;5018412;28;20304;-67
2023/03/04 10:05:44;;;;;;;1.05;0.80;;;1.30;99.90;;;;;;5010647;28;20705;-68
2023/03/04 10:08:33;;;;;;;1.58;0.93;;;1.40;98.90;;;;;;5010246;28;20205;-68
2023/03/04 10:11:01;;;;;;;0.82;0.73;;;1.30;98.40;;;;;;5010263;28;20221;-67
2023/03/04 10:13:35;;;;;;;2.28;2.10;;;1.40;98.70;;;;;;5014161;28;20207;-67
2023/03/04 10:16:05;;;;;;;2.63;2.40;;;1.60;98.30;;;;;;5029875;28;20207;-67
2023/03/04 10:18:37;;;;;;;1.70;1.60;;;1.70;97.80;;;;;;5022743;28;20275;-68
2023/03/04 10:21:10;;;;;;;1.23;1.15;;;1.50;99.90;;;;;;5017074;28;20594;-67
2023/03/04 10:23:40;;;;;;;3.10;2.42;;;1.60;96.70;;;;;;5014067;28;20201;-67
2023/03/04 10:26:14;;;;;;;7.07;2.22;;;1.60;96.60;;;;;;5029451;28;20303;-67
2023/03/04 10:28:41;;;;;;;3.10;1.20;;;1.70;96.70;;;;;;5028318;28;20210;-67
2023/03/04 10:31:16;;;;;;;2.58;2.00;;;1.80;99.00;;;;;;5021056;28;20231;-68
2023/03/04 10:33:43;;;;;;;4.47;2.60;;;2.00;99.90;;;;;;5016517;28;20303;-68
2023/03/04 10:36:33;;;;;;;2.40;0.90;;;2.10;96.40;;;;;;5024948;28;20231;-68
2023/03/04 10:39:05;;;;;;;1.42;1.15;;;2.20;99.90;;;;;;5031687;28;20192;-68
2023/03/04 10:41:32;;;;;;;1.95;1.63;;;1.70;99.90;;;;;;5035913;28;20224;-67
2023/03/04 10:44:03;;;;;;;7.55;3.75;;;2.00;99.90;;;;;;5018754;28;20757;-68
2023/03/04 10:46:30;;;;;;;1.90;1.77;;;2.50;95.60;;;;;;5033843;28;20212;-67
2023/03/04 10:48:57;;;;;;;2.63;2.42;;;2.50;95.10;;;;;;5033212;28;20203;-68
2023/03/04 10:51:26;;;;;;;2.63;2.42;;;2.40;94.40;;;;;;5028523;28;20677;-68
2023/03/04 10:53:58;;;;;;;2.13;2.03;;;2.30;95.10;;;;;;5014540;28;20252;-68
2023/03/04 10:56:36;;;;;;;4.55;2.47;;;2.30;99.80;;;;;;5014646;28;20221;-68
2023/03/04 10:59:40;;;;;;;2.75;1.95;;;2.20;99.90;;;;;;5023274;28;20207;-67
2023/03/04 11:02:20;;;;;;;4.55;1.20;;;2.50;99.90;;;;;;5028724;28;20223;-67
2023/03/04 11:04:52;;;;;;;2.40;2.13;;;2.60;98.70;;;;;;5019603;28;20189;-68
2023/03/04 11:07:19;;;;;;;2.33;2.05;;;2.60;94.80;;;;;;5014034;28;20235;-67
2023/03/04 11:09:46;;;;;;;1.42;1.42;;;2.50;94.00;;;;;;5013093;28;20208;-70
2023/03/04 11:12:19;;;;;;;4.03;3.35;;;2.10;99.90;;;;;;5029666;28;20216;-69
2023/03/04 11:14:48;;;;;;;1.73;1.63;;;2.20;94.10;;;;;;5021429;28;20202;-68
2023/03/04 11:17:21;;;;;;;14.05;2.75;;;2.10;99.90;;;;;;5013270;28;20275;-68
2023/03/04 11:19:54;;;;;;;2.35;1.35;;;2.20;94.50;;;;;;5012183;28;20195;-68
2023/03/04 11:22:23;;;;;;;8.10;3.08;;;2.40;94.50;;;;;;5015773;28;20255;-67
2023/03/04 11:24:56;;;;;;;1.55;1.45;;;2.50;99.90;;;;;;5012617;28;20193;-68
2023/03/04 11:27:34;;;;;;;3.08;2.72;;;2.60;99.90;;;;;;5027931;28;20212;-68
2023/03/04 11:30:15;;;;;;;3.03;2.72;;;2.60;99.90;;;;;;5015517;28;20197;-68
2023/03/04 11:32:46;;;;;;;4.72;2.15;;;2.50;93.40;;;;;;5027183;28;20211;-67
2023/03/04 11:35:21;;;;;;;4.10;3.63;;;2.50;97.30;;;;;;5029035;28;20670;-67
2023/03/04 11:37:53;;;;;;;4.85;3.55;;;2.50;93.60;;;;;;5031928;28;20696;-67
2023/03/04 11:40:28;;;;;;;3.60;1.80;;;2.60;99.90;;;;;;5035414;28;20754;-68
2023/03/04 11:43:03;;;;;;;2.28;2.03;;;2.70;93.70;;;;;;5015412;28;20235;-67
2023/03/04 11:45:41;;;;;;;2.15;2.05;;;2.70;93.50;;;;;;5011599;28;20220;-67
2023/03/04 11:48:12;;;;;;;3.47;3.17;;;2.60;93.10;;;;;;5023028;28;20203;-67
2023/03/04 11:50:48;;;;;;;7.88;3.38;;;2.40;99.90;;;;;;5031518;28;20228;-67
2023/03/04 11:53:42;;;;;;;3.90;3.60;;;2.50;93.00;;;;;;5021891;28;20197;-67
2023/03/04 11:56:38;;;;;;;2.88;1.23;;;2.50;97.70;;;;;;5023994;28;20222;-71
2023/03/04 11:59:27;;;;;;;4.55;2.70;;;2.70;99.90;;;;;;5025524;28;20196;-67
2023/03/04 12:02:12;;;;;;;2.67;2.22;;;2.60;99.90;;;;;;5019249;28;20608;-68
2023/03/04 12:05:00;;;;;;;1.67;0.98;;;2.60;92.40;;;;;;5013602;28;20206;-68
2023/03/04 12:07:46;;;;;;;2.38;1.63;;;2.60;92.60;;;;;;5013932;28;20221;-67
2023/03/04 12:10:24;;;;;;;2.92;2.40;;;2.60;92.80;;;;;;5028422;28;20661;-68
2023/03/04 12:13:29;;;;;;;2.22;1.75;;;2.60;93.00;;;;;;5023390;28;20275;-67
2023/03/04 12:16:10;;;;;;;7.20;3.17;;;2.80;93.10;;;;;;5013234;28;20243;-67
2023/03/04 12:18:50;;;;;;;1.63;1.40;;;2.70;92.80;;;;;;5011974;28;20203;-68
2023/03/04 12:21:27;;;;;;;3.22;2.65;;;2.70;92.90;;;;;;5012335;28;20237;-68
2023/03/04 12:24:22;;;;;;;419.73;61.47;;;2.90;92.90;;;;;;5026906;28;20235;-68
2023/03/04 12:26:54;;;;;;;1.48;1.33;;;2.80;92.60;;;;;;5024020;28;20225;-68
2023/03/04 12:29:31;;;;;;;1.70;1.42;;;2.70;92.80;;;;;;5029518;28;20295;-68
2023/03/04 12:32:05;;;;;;;1.05;0.85;;;2.60;92.80;;;;;;5016382;28;20228;-68
2023/03/04 12:34:46;;;;;;;4.35;2.90;;;2.60;92.70;;;;;;5032046;28;20189;-68
2023/03/04 12:37:36;;;;;;;1.73;1.63;;;2.70;93.10;;;;;;5013144;28;20674;-68
2023/03/04 12:40:19;;;;;;;4.05;2.90;;;2.90;92.80;;;;;;5034749;28;20200;-68
2023/03/04 12:42:59;;;;;;;2.58;2.47;;;2.90;93.40;;;;;;5020179;28;20221;-68
2023/03/04 12:45:32;;;;;;;2.75;2.55;;;3.00;91.90;;;;;;5011974;28;20221;-67
2023/03/04 12:48:07;;;;;;;3.17;2.45;;;3.00;92.10;;;;;;5023543;28;20200;-68
2023/03/04 12:50:41;;;;;;;4.05;2.35;;;2.80;91.90;;;;;;5011802;28;20227;-67
2023/03/04 12:53:17;;;;;;;1.58;1.45;;;2.80;92.20;;;;;;5012910;28;20724;-67
2023/03/04 12:55:46;;;;;;;3.42;2.97;;;2.80;91.80;;;;;;5012759;28;20217;-67
2023/03/04 12:58:17;;;;;;;3.15;1.45;;;2.50;99.90;;;;;;5024916;28;20192;-67
2023/03/04 13:00:51;;;;;;;7.32;2.97;;;2.50;92.10;;;;;;5033501;28;20220;-67
2023/03/04 13:03:25;;;;;;;2.72;2.63;;;2.70;92.60;;;;;;5028661;28;20219;-67
2023/03/04 13:06:13;;;;;;;6.47;3.75;;;2.90;95.90;;;;;;5030708;28;20751;-68